Time;durP1;ratioP1;P1;durP2;ratioP2;P2;SDS_P1;SDS_P2;PMS_P1;PMS_P2;Temp;Humidity;BMP_temperature;BMP_pressure;BME280_temperature;BME280_humidity;BME280_pressure;Samples;Min_cycle;Max_cycle;Signal;HPM_P1;HPM_P2
2021/10/15 00:01:42;;;;;;;4.40;3.50;;;;;19.30;101495.00;;;;5066541;28;20437;-81
2021/10/15 00:04:10;;;;;;;5.18;4.32;;;;;19.30;101493.00;;;;5059611;28;20230;-81
2021/10/15 00:06:37;;;;;;;5.50;3.92;;;;;19.40;101491.00;;;;5058739;28;20536;-81
2021/10/15 00:09:04;;;;;;;8.00;4.57;;;;;19.40;101487.00;;;;5077789;28;20203;-81
2021/10/15 00:11:31;;;;;;;4.25;3.72;;;;;19.30;101477.00;;;;5036708;28;20212;-80
2021/10/15 00:13:58;;;;;;;5.35;3.05;;;;;19.30;101481.00;;;;5038968;28;20200;-81
2021/10/15 00:16:26;;;;;;;5.15;3.85;;;;;19.30;101483.00;;;;5036408;28;20685;-80
2021/10/15 00:18:54;;;;;;;4.78;3.70;;;;;19.30;101482.00;;;;5041247;28;20207;-80
2021/10/15 00:21:21;;;;;;;4.65;3.78;;;;;19.30;101470.00;;;;5068137;28;20206;-79
2021/10/15 00:23:49;;;;;;;4.38;3.47;;;;;19.30;101472.00;;;;5052862;28;20740;-79
2021/10/15 00:26:16;;;;;;;4.97;3.55;;;;;19.30;101475.00;;;;5050643;28;20208;-79
2021/10/15 00:28:43;;;;;;;5.75;3.30;;;;;19.30;101469.00;;;;5048012;28;20211;-80
2021/10/15 00:31:10;;;;;;;4.47;3.65;;;;;19.30;101466.00;;;;5046233;28;20682;-79
2021/10/15 00:33:37;;;;;;;5.85;3.80;;;;;19.30;101456.00;;;;5035595;28;20196;-79
2021/10/15 00:36:06;;;;;;;5.55;3.70;;;;;19.30;101460.00;;;;5033697;28;20208;-79
2021/10/15 00:38:33;;;;;;;4.53;3.63;;;;;19.30;101445.00;;;;5031747;28;20227;-80
2021/10/15 00:41:01;;;;;;;3.92;2.97;;;;;19.30;101430.00;;;;5047710;28;20196;-80
2021/10/15 00:43:28;;;;;;;4.10;3.22;;;;;19.30;101439.00;;;;5041987;28;20224;-80
2021/10/15 00:45:55;;;;;;;6.30;3.75;;;;;19.30;101437.00;;;;5055937;28;20211;-79
2021/10/15 00:48:22;;;;;;;4.05;3.15;;;;;19.30;101450.00;;;;5054880;28;20196;-80
2021/10/15 00:50:51;;;;;;;4.93;3.17;;;;;19.30;101435.00;;;;5051613;28;20199;-79
2021/10/15 00:53:20;;;;;;;4.45;3.28;;;;;19.30;101428.00;;;;5058348;28;20245;-80
2021/10/15 00:55:47;;;;;;;4.72;3.85;;;;;19.30;101428.00;;;;5060142;28;20705;-81
2021/10/15 00:58:14;;;;;;;4.22;3.10;;;;;19.30;101424.00;;;;5062341;28;20203;-80
2021/10/15 01:00:42;;;;;;;3.97;3.58;;;;;19.30;101424.00;;;;5056414;28;20208;-80
2021/10/15 01:03:09;;;;;;;4.43;3.42;;;;;19.30;101429.00;;;;5057342;28;20210;-80
2021/10/15 01:05:36;;;;;;;4.18;3.20;;;;;19.30;101423.00;;;;5067234;28;20195;-80
2021/10/15 01:08:04;;;;;;;4.00;3.08;;;;;19.30;101422.00;;;;5082589;28;20351;-80
2021/10/15 01:10:33;;;;;;;5.03;3.50;;;;;19.30;101416.00;;;;5048635;28;20199;-80
2021/10/15 01:13:02;;;;;;;4.43;3.47;;;;;19.30;101412.00;;;;5056819;28;20207;-79
2021/10/15 01:15:29;;;;;;;5.32;3.72;;;;;19.30;101411.00;;;;5055118;28;20218;-80
2021/10/15 01:17:56;;;;;;;4.28;3.13;;;;;19.30;101406.00;;;;5061677;28;20204;-80
2021/10/15 01:20:25;;;;;;;4.53;3.30;;;;;19.30;101407.00;;;;5069131;28;20204;-80
2021/10/15 01:22:52;;;;;;;4.38;3.45;;;;;19.30;101399.00;;;;5044810;28;20204;-79
2021/10/15 01:25:20;;;;;;;4.70;3.35;;;;;19.30;101405.00;;;;5040744;28;20231;-81
2021/10/15 01:27:48;;;;;;;4.80;3.00;;;;;19.30;101402.00;;;;5040972;28;20200;-80
2021/10/15 01:30:15;;;;;;;4.10;3.05;;;;;19.30;101394.00;;;;5033137;28;20200;-80
2021/10/15 01:32:42;;;;;;;4.00;3.50;;;;;19.30;101394.00;;;;5048047;28;20202;-80
2021/10/15 01:35:10;;;;;;;4.15;3.47;;;;;19.30;101396.00;;;;5050907;28;20200;-80
2021/10/15 01:37:38;;;;;;;5.35;3.45;;;;;19.30;101389.00;;;;5080343;28;20202;-81
2021/10/15 01:40:07;;;;;;;4.53;3.03;;;;;19.30;101395.00;;;;5040328;28;20243;-80
2021/10/15 01:45:20;;;;;;;4.97;3.33;;;;;19.30;101383.00;;;;5033134;28;20242;-79
2021/10/15 01:47:47;;;;;;;4.80;3.80;;;;;19.30;101383.00;;;;5035464;28;20193;-80
2021/10/15 01:50:15;;;;;;;5.03;3.85;;;;;19.30;101366.00;;;;5046316;28;20196;-80
2021/10/15 01:52:43;;;;;;;5.10;3.42;;;;;19.30;101374.00;;;;5048678;28;20207;-80
2021/10/15 01:55:12;;;;;;;4.32;3.58;;;;;19.30;101376.00;;;;5044721;28;20224;-80
2021/10/15 01:57:40;;;;;;;4.18;3.40;;;;;19.30;101375.00;;;;5044911;28;20204;-81
2021/10/15 02:00:10;;;;;;;5.43;3.45;;;;;19.20;101364.00;;;;5053868;28;20195;-82
2021/10/15 02:02:37;;;;;;;4.22;3.80;;;;;19.30;101357.00;;;;5054119;28;20732;-81
2021/10/15 02:05:06;;;;;;;6.22;4.15;;;;;19.30;101347.00;;;;5051917;28;20223;-81
2021/10/15 02:07:33;;;;;;;4.35;3.90;;;;;19.30;101352.00;;;;5054861;28;20204;-81
2021/10/15 02:10:01;;;;;;;4.35;3.50;;;;;19.30;101360.00;;;;5051461;28;20203;-81
2021/10/15 02:12:29;;;;;;;4.45;3.60;;;;;19.30;101351.00;;;;5046347;28;20572;-81
2021/10/15 02:14:56;;;;;;;7.00;3.63;;;;;19.30;101351.00;;;;5047375;28;20192;-82
2021/10/15 02:17:23;;;;;;;4.53;3.83;;;;;19.30;101344.00;;;;5061390;28;20547;-82
2021/10/15 02:19:50;;;;;;;5.10;4.15;;;;;19.30;101340.00;;;;5064903;28;20226;-81
2021/10/15 02:22:18;;;;;;;5.43;3.95;;;;;19.30;101336.00;;;;5043553;28;20211;-82
2021/10/15 02:24:45;;;;;;;7.28;4.22;;;;;19.30;101337.00;;;;5042067;28;20232;-81
2021/10/15 02:27:14;;;;;;;4.50;4.07;;;;;19.30;101333.00;;;;5058289;28;20203;-82
2021/10/15 02:29:41;;;;;;;5.18;3.95;;;;;19.30;101335.00;;;;5058643;28;20294;-82
2021/10/15 02:32:08;;;;;;;4.13;3.42;;;;;19.30;101318.00;;;;5056469;28;20203;-82
2021/10/15 02:34:36;;;;;;;6.85;3.92;;;;;19.30;101333.00;;;;5059400;28;20211;-81
2021/10/15 02:37:03;;;;;;;5.78;4.10;;;;;19.30;101326.00;;;;5055940;28;20207;-81
2021/10/15 02:39:31;;;;;;;4.63;3.58;;;;;19.30;101324.00;;;;5038440;28;20236;-81
2021/10/15 02:41:58;;;;;;;5.40;4.05;;;;;19.30;101317.00;;;;5037323;28;20207;-82
2021/10/15 02:44:26;;;;;;;6.35;4.45;;;;;19.30;101314.00;;;;5048180;28;20586;-82
2021/10/15 02:46:54;;;;;;;5.55;3.97;;;;;19.30;101313.00;;;;5056423;28;20294;-81
2021/10/15 02:49:21;;;;;;;5.80;3.92;;;;;19.30;101312.00;;;;5054011;28;21002;-81
2021/10/15 02:51:48;;;;;;;4.55;3.90;;;;;19.30;101306.00;;;;5046187;28;20203;-81
2021/10/15 02:54:15;;;;;;;6.15;4.05;;;;;19.20;101310.00;;;;5056817;28;20199;-81
2021/10/15 02:56:43;;;;;;;6.95;4.43;;;;;19.20;101293.00;;;;5051925;28;20222;-81
2021/10/15 02:59:10;;;;;;;7.18;4.45;;;;;19.20;101294.00;;;;5053354;28;20213;-82
2021/10/15 03:01:39;;;;;;;5.80;4.50;;;;;19.20;101286.00;;;;5046166;28;20632;-81
2021/10/15 03:04:07;;;;;;;6.00;4.72;;;;;19.20;101287.00;;;;5052090;28;20628;-81
2021/10/15 03:06:34;;;;;;;7.00;4.65;;;;;19.20;101285.00;;;;5041757;28;20552;-81
2021/10/15 03:09:02;;;;;;;7.20;4.03;;;;;19.20;101285.00;;;;5033576;28;20230;-81
2021/10/15 03:11:29;;;;;;;6.32;5.05;;;;;19.20;101282.00;;;;5030441;28;20679;-81
2021/10/15 03:13:56;;;;;;;6.55;4.20;;;;;19.20;101280.00;;;;5032782;28;20208;-81
2021/10/15 03:16:24;;;;;;;5.43;4.60;;;;;19.20;101274.00;;;;5045767;28;20210;-81
2021/10/15 03:18:52;;;;;;;6.75;4.28;;;;;19.10;101267.00;;;;5046525;28;20196;-81
2021/10/15 03:21:19;;;;;;;6.55;4.60;;;;;19.20;101261.00;;;;5038027;28;20662;-81
2021/10/15 03:23:47;;;;;;;6.70;3.90;;;;;19.20;101262.00;;;;5034605;28;20188;-81
2021/10/15 03:26:14;;;;;;;7.20;3.78;;;;;19.10;101255.00;;;;5044217;28;20204;-82
2021/10/15 03:28:41;;;;;;;5.22;3.80;;;;;19.20;101253.00;;;;5039929;28;20196;-81
2021/10/15 03:31:08;;;;;;;5.32;3.88;;;;;19.20;101266.00;;;;5037368;28;20203;-81
2021/10/15 03:33:36;;;;;;;5.72;4.30;;;;;19.20;101262.00;;;;5047527;28;20689;-81
2021/10/15 03:36:04;;;;;;;6.88;4.28;;;;;19.20;101254.00;;;;5030671;28;20203;-81
2021/10/15 03:38:32;;;;;;;6.13;3.80;;;;;19.20;101262.00;;;;5031690;28;20232;-81
2021/10/15 03:40:59;;;;;;;6.30;4.30;;;;;19.20;101256.00;;;;5030661;28;20200;-80
2021/10/15 03:43:26;;;;;;;6.20;4.28;;;;;19.20;101260.00;;;;5034763;28;20200;-81
2021/10/15 03:45:53;;;;;;;6.45;4.22;;;;;19.20;101258.00;;;;5029455;28;20228;-81
2021/10/15 03:48:21;;;;;;;6.05;3.70;;;;;19.20;101254.00;;;;5066772;28;20187;-81
2021/10/15 03:50:48;;;;;;;6.25;3.70;;;;;19.20;101260.00;;;;5044171;28;20195;-81
2021/10/15 03:53:17;;;;;;;5.35;3.83;;;;;19.10;101256.00;;;;5053833;28;20207;-81
2021/10/15 03:55:44;;;;;;;6.15;4.50;;;;;19.10;101253.00;;;;5045475;28;20219;-82
2021/10/15 03:58:11;;;;;;;4.57;3.42;;;;;19.20;101256.00;;;;5051769;28;20848;-81
2021/10/15 04:00:38;;;;;;;5.28;3.72;;;;;19.10;101252.00;;;;5051256;28;20199;-82
2021/10/15 04:03:07;;;;;;;5.85;4.38;;;;;19.10;101255.00;;;;5052059;28;20204;-81
2021/10/15 04:05:34;;;;;;;7.07;3.83;;;;;19.10;101244.00;;;;5039687;28;20247;-81
2021/10/15 04:08:01;;;;;;;6.18;4.18;;;;;19.20;101250.00;;;;5058570;28;20206;-81
2021/10/15 04:10:30;;;;;;;4.90;3.80;;;;;19.10;101252.00;;;;5046129;28;20196;-80
2021/10/15 04:12:57;;;;;;;5.53;3.53;;;;;19.10;101260.00;;;;5032966;28;20207;-81
2021/10/15 04:15:24;;;;;;;6.38;4.00;;;;;19.20;101252.00;;;;5036559;28;20211;-81
2021/10/15 04:17:51;;;;;;;5.43;3.88;;;;;19.10;101254.00;;;;5054796;28;20206;-81
2021/10/15 04:20:19;;;;;;;5.03;3.78;;;;;19.20;101248.00;;;;5059269;28;20200;-82
2021/10/15 04:22:46;;;;;;;4.15;3.67;;;;;19.10;101248.00;;;;5035463;28;20239;-81
2021/10/15 04:25:13;;;;;;;7.22;4.35;;;;;19.10;101248.00;;;;5043789;28;20709;-81
2021/10/15 04:27:42;;;;;;;7.28;4.47;;;;;19.10;101238.00;;;;5054714;28;20194;-81
2021/10/15 04:30:10;;;;;;;4.40;3.83;;;;;19.10;101243.00;;;;5060426;28;20203;-80
2021/10/15 04:32:37;;;;;;;5.00;4.25;;;;;19.10;101238.00;;;;5052718;28;20204;-81
2021/10/15 04:35:05;;;;;;;5.88;3.50;;;;;19.10;101238.00;;;;5057076;28;20265;-81
2021/10/15 04:37:33;;;;;;;6.50;4.75;;;;;19.10;101236.00;;;;5061845;28;20211;-81
2021/10/15 04:40:00;;;;;;;6.13;3.78;;;;;19.10;101228.00;;;;5053085;28;20223;-81
2021/10/15 04:42:28;;;;;;;9.50;4.00;;;;;19.10;101241.00;;;;5044690;28;20208;-81
2021/10/15 04:44:57;;;;;;;4.97;3.83;;;;;19.10;101236.00;;;;5048291;28;20246;-81
2021/10/15 04:47:24;;;;;;;5.30;3.88;;;;;19.10;101227.00;;;;5053272;28;20194;-82
2021/10/15 04:49:51;;;;;;;5.95;3.78;;;;;19.10;101243.00;;;;5054223;28;20231;-81
2021/10/15 04:52:19;;;;;;;4.45;4.00;;;;;19.10;101238.00;;;;5052594;28;20249;-81
2021/10/15 04:54:46;;;;;;;6.95;4.60;;;;;19.10;101246.00;;;;5053368;28;20211;-82
2021/10/15 04:57:13;;;;;;;6.43;4.53;;;;;19.10;101244.00;;;;5041263;28;20207;-81
2021/10/15 04:59:40;;;;;;;5.93;3.80;;;;;19.10;101240.00;;;;5047767;28;20207;-81
2021/10/15 05:02:09;;;;;;;5.13;4.13;;;;;19.10;101236.00;;;;5054331;28;21044;-81
2021/10/15 05:04:36;;;;;;;4.95;4.00;;;;;19.10;101235.00;;;;5053273;28;20354;-81
2021/10/15 05:07:03;;;;;;;8.88;4.88;;;;;19.10;101235.00;;;;5052711;28;20196;-80
2021/10/15 05:09:35;;;;;;;4.28;3.38;;;;;19.10;101234.00;;;;5053320;28;20200;-80
2021/10/15 05:12:05;;;;;;;7.47;4.32;;;;;19.20;101227.00;;;;5047879;28;20284;-80
2021/10/15 05:14:33;;;;;;;5.13;3.45;;;;;19.20;101224.00;;;;5042187;28;20584;-81
2021/10/15 05:17:01;;;;;;;6.10;4.05;;;;;19.20;101229.00;;;;5042420;28;20231;-81
2021/10/15 05:19:30;;;;;;;5.70;3.95;;;;;19.20;101236.00;;;;5034258;28;20204;-80
2021/10/15 05:21:57;;;;;;;11.50;7.97;;;;;19.20;101230.00;;;;5053073;28;20447;-85
2021/10/15 05:24:24;;;;;;;6.90;5.30;;;;;19.30;101225.00;;;;5038785;28;20215;-84
2021/10/15 05:26:52;;;;;;;7.05;4.18;;;;;19.30;101219.00;;;;5030554;28;20658;-82
2021/10/15 05:29:19;;;;;;;6.70;4.03;;;;;19.30;101210.00;;;;5034945;28;20247;-83
2021/10/15 05:31:46;;;;;;;5.50;4.28;;;;;19.30;101210.00;;;;5063930;28;20195;-83
2021/10/15 05:34:13;;;;;;;7.40;3.75;;;;;19.30;101212.00;;;;5047267;28;20195;-82
2021/10/15 05:36:42;;;;;;;5.50;3.92;;;;;19.20;101215.00;;;;5051952;28;20219;-82
2021/10/15 05:39:09;;;;;;;3.90;3.22;;;;;19.30;101214.00;;;;5060867;28;20231;-82
2021/10/15 05:41:36;;;;;;;4.47;3.47;;;;;19.30;101216.00;;;;5048928;28;20207;-83
2021/10/15 05:44:04;;;;;;;7.30;3.65;;;;;19.30;101211.00;;;;5048464;28;20572;-82
2021/10/15 05:46:31;;;;;;;4.88;3.45;;;;;19.30;101206.00;;;;5046536;28;20223;-82
2021/10/15 05:48:58;;;;;;;5.18;3.63;;;;;19.30;101208.00;;;;5038404;28;20207;-83
2021/10/15 05:51:28;;;;;;;5.07;3.30;;;;;19.30;101210.00;;;;5056747;28;20207;-81
2021/10/15 05:53:59;;;;;;;6.13;4.18;;;;;19.30;101207.00;;;;5064669;28;20256;-80
2021/10/15 05:59:12;;;;;;;6.57;3.63;;;;;19.30;101212.00;;;;5050750;28;20226;-80
2021/10/15 06:01:39;;;;;;;5.13;3.55;;;;;19.30;101217.00;;;;5062941;28;20282;-81
2021/10/15 06:15:06;;;;;;;6.38;3.38;;;;;19.30;101225.00;;;;5047502;28;20204;-79
2021/10/15 06:17:42;;;;;;;4.82;3.47;;;;;19.40;101230.00;;;;5048792;28;20195;-79
2021/10/15 06:20:10;;;;;;;5.88;3.25;;;;;19.40;101237.00;;;;5044060;28;20192;-78
2021/10/15 06:22:38;;;;;;;5.93;3.45;;;;;19.40;101228.00;;;;5029144;28;20204;-79
2021/10/15 06:25:07;;;;;;;2.47;2.08;;;;;19.40;101243.00;;;;5044377;28;20262;-79
2021/10/15 06:27:35;;;;;;;4.35;2.58;;;;;19.40;101240.00;;;;5058564;28;20206;-80
2021/10/15 06:30:03;;;;;;;3.97;2.13;;;;;19.40;101242.00;;;;5067957;28;20206;-78
2021/10/15 06:32:30;;;;;;;4.57;2.53;;;;;19.40;101243.00;;;;5068772;28;20688;-79
2021/10/15 06:34:57;;;;;;;3.17;2.25;;;;;19.40;101254.00;;;;5068534;28;20214;-78
2021/10/15 06:37:25;;;;;;;4.75;2.40;;;;;19.40;101267.00;;;;5068456;28;20202;-81
2021/10/15 06:39:53;;;;;;;1.95;1.52;;;;;19.40;101305.00;;;;5067321;28;20409;-78
2021/10/15 06:42:21;;;;;;;1.00;0.80;;;;;19.30;101314.00;;;;5034632;28;20194;-80
2021/10/15 06:44:49;;;;;;;1.70;0.52;;;;;19.20;101324.00;;;;5059338;28;20203;-79
2021/10/15 06:47:16;;;;;;;1.23;0.55;;;;;19.10;101321.00;;;;5048708;28;20212;-81
2021/10/15 06:49:43;;;;;;;0.63;0.28;;;;;19.10;101322.00;;;;5060530;28;20203;-80
2021/10/15 06:52:10;;;;;;;1.00;0.45;;;;;19.00;101338.00;;;;5068126;28;20198;-80
2021/10/15 06:54:37;;;;;;;0.20;0.10;;;;;19.00;101333.00;;;;5045076;28;20205;-80
2021/10/15 06:57:05;;;;;;;2.50;0.32;;;;;18.90;101350.00;;;;5047930;28;20219;-78
2021/10/15 06:59:34;;;;;;;0.17;0.10;;;;;18.90;101351.00;;;;5047578;28;20787;-78
2021/10/15 07:02:01;;;;;;;1.63;0.40;;;;;18.80;101357.00;;;;5042735;28;20204;-78
2021/10/15 07:04:29;;;;;;;0.40;0.17;;;;;18.80;101373.00;;;;5028387;28;20223;-78
2021/10/15 07:06:56;;;;;;;0.00;0.00;;;;;18.70;101376.00;;;;5034242;28;20211;-78
2021/10/15 07:09:23;;;;;;;0.80;0.30;;;;;18.70;101387.00;;;;5048749;28;20283;-78
2021/10/15 07:11:51;;;;;;;0.55;0.10;;;;;18.60;101385.00;;;;5063865;28;20199;-78
2021/10/15 07:14:18;;;;;;;0.10;0.00;;;;;18.60;101395.00;;;;5058142;28;20226;-78
2021/10/15 07:16:47;;;;;;;0.20;0.10;;;;;18.50;101390.00;;;;5028693;28;20208;-78
2021/10/15 07:19:15;;;;;;;0.20;0.10;;;;;18.50;101411.00;;;;5028551;28;20203;-78
2021/10/15 07:21:42;;;;;;;0.93;0.00;;;;;18.50;101401.00;;;;5028307;28;20231;-77
2021/10/15 07:24:09;;;;;;;0.98;0.30;;;;;18.50;101409.00;;;;5030930;28;20211;-78
2021/10/15 07:26:37;;;;;;;0.30;0.10;;;;;18.40;101409.00;;;;5031896;28;20232;-78
2021/10/15 07:29:05;;;;;;;0.20;0.10;;;;;18.40;101418.00;;;;5031980;28;20192;-78
2021/10/15 07:31:32;;;;;;;0.30;0.10;;;;;18.40;101415.00;;;;5032699;28;20223;-77
2021/10/15 07:34:01;;;;;;;0.10;0.10;;;;;18.40;101420.00;;;;5031360;28;20670;-77
2021/10/15 07:36:28;;;;;;;1.20;0.30;;;;;18.40;101423.00;;;;5032136;28;20196;-78
2021/10/15 07:38:55;;;;;;;0.35;0.10;;;;;18.40;101427.00;;;;5031460;28;20235;-78
2021/10/15 07:41:23;;;;;;;0.55;0.00;;;;;18.30;101429.00;;;;5058568;28;20549;-77
2021/10/15 07:43:51;;;;;;;1.55;0.10;;;;;18.30;101423.00;;;;5071538;28;20187;-77
2021/10/15 07:46:18;;;;;;;0.22;0.10;;;;;18.30;101440.00;;;;5071609;28;20281;-77
2021/10/15 07:48:45;;;;;;;0.32;0.10;;;;;18.30;101442.00;;;;5059983;28;20211;-77
2021/10/15 07:51:14;;;;;;;1.85;0.40;;;;;18.30;101452.00;;;;5051909;28;20683;-78
2021/10/15 07:53:42;;;;;;;0.30;0.10;;;;;18.30;101461.00;;;;5046049;28;20207;-77
2021/10/15 07:56:09;;;;;;;0.10;0.00;;;;;18.30;101467.00;;;;5036094;28;20644;-79
2021/10/15 07:58:36;;;;;;;0.20;0.15;;;;;18.30;101473.00;;;;5037325;28;20208;-79
2021/10/15 08:01:04;;;;;;;1.13;0.17;;;;;18.30;101466.00;;;;5041107;28;20188;-79
2021/10/15 08:03:31;;;;;;;1.13;0.20;;;;;18.30;101473.00;;;;5069411;28;20202;-79
2021/10/15 08:05:58;;;;;;;1.30;0.30;;;;;18.30;101479.00;;;;5041306;28;20228;-79
2021/10/15 08:08:27;;;;;;;1.15;0.08;;;;;18.30;101480.00;;;;5030655;28;20211;-79
2021/10/15 08:10:54;;;;;;;0.50;0.17;;;;;18.30;101491.00;;;;5031378;28;20200;-78
2021/10/15 08:13:21;;;;;;;2.13;1.20;;;;;18.30;101491.00;;;;5031701;28;20658;-79
2021/10/15 08:15:49;;;;;;;2.58;0.75;;;;;18.30;101494.00;;;;5030549;28;20203;-79
2021/10/15 08:18:16;;;;;;;0.90;0.55;;;;;18.30;101502.00;;;;5049036;28;20203;-79
2021/10/15 08:20:43;;;;;;;0.77;0.40;;;;;18.30;101498.00;;;;5047540;28;20203;-79
2021/10/15 08:23:11;;;;;;;1.73;0.77;;;;;18.40;101502.00;;;;5042087;28;20220;-78
2021/10/15 08:25:41;;;;;;;1.67;0.70;;;;;18.40;101505.00;;;;5030273;28;20713;-79
2021/10/15 08:28:09;;;;;;;2.03;0.30;;;;;18.40;101498.00;;;;5030855;28;20196;-79
2021/10/15 08:30:36;;;;;;;1.02;0.20;;;;;18.40;101506.00;;;;5031128;28;20204;-79
2021/10/15 08:33:03;;;;;;;1.25;0.38;;;;;18.40;101508.00;;;;5035486;28;20227;-79
2021/10/15 08:35:31;;;;;;;1.70;0.40;;;;;18.50;101520.00;;;;5029725;28;20204;-79
2021/10/15 08:37:58;;;;;;;1.10;0.60;;;;;18.50;101512.00;;;;5027211;28;20545;-80
2021/10/15 08:40:27;;;;;;;1.08;0.20;;;;;18.50;101515.00;;;;5034695;28;20239;-79
2021/10/15 08:42:57;;;;;;;1.33;0.40;;;;;18.50;101522.00;;;;5037910;28;20196;-78
2021/10/15 08:45:24;;;;;;;0.75;0.20;;;;;18.50;101530.00;;;;5046788;28;20311;-79
2021/10/15 08:47:52;;;;;;;2.47;0.50;;;;;18.60;101527.00;;;;5029893;28;20192;-78
2021/10/15 08:50:19;;;;;;;2.70;0.60;;;;;18.60;101536.00;;;;5030570;28;20666;-78
2021/10/15 08:52:47;;;;;;;1.52;0.47;;;;;18.60;101545.00;;;;5030791;28;20197;-78
2021/10/15 08:55:14;;;;;;;0.65;0.30;;;;;18.70;101540.00;;;;5051487;28;20218;-78
2021/10/15 08:57:47;;;;;;;1.67;0.40;;;;;18.70;101549.00;;;;5060086;28;20202;-79
2021/10/15 09:00:25;;;;;;;1.10;0.43;;;;;18.70;101544.00;;;;5061920;28;20204;-77
2021/10/15 09:03:11;;;;;;;1.40;0.30;;;;;18.70;101550.00;;;;5057009;28;20191;-78
2021/10/15 09:05:39;;;;;;;1.75;0.40;;;;;18.80;101552.00;;;;5070176;28;20207;-78
2021/10/15 09:08:07;;;;;;;2.58;0.43;;;;;18.80;101556.00;;;;5070063;28;20211;-78
2021/10/15 09:10:35;;;;;;;1.63;0.55;;;;;18.80;101562.00;;;;5069893;28;20652;-77
2021/10/15 09:13:15;;;;;;;1.60;0.30;;;;;18.70;101566.00;;;;5061435;28;20668;-78
2021/10/15 09:15:44;;;;;;;2.30;0.30;;;;;18.90;101569.00;;;;5029881;28;20266;-77
2021/10/15 09:18:13;;;;;;;3.83;0.55;;;;;18.90;101570.00;;;;5030228;28;20212;-76
2021/10/15 09:20:41;;;;;;;2.25;0.30;;;;;19.00;101571.00;;;;5029918;28;20204;-77
2021/10/15 09:23:09;;;;;;;1.45;0.47;;;;;19.10;101578.00;;;;5030249;28;20212;-76
2021/10/15 09:25:37;;;;;;;2.45;0.43;;;;;19.20;101584.00;;;;5031027;28;20204;-76
2021/10/15 09:28:13;;;;;;;2.28;0.73;;;;;19.20;101584.00;;;;5049593;28;20208;-76
2021/10/15 09:30:44;;;;;;;3.83;0.35;;;;;19.30;101577.00;;;;5044494;28;20203;-77
2021/10/15 09:33:12;;;;;;;2.08;0.40;;;;;19.40;101585.00;;;;5044605;28;20210;-78
2021/10/15 09:35:39;;;;;;;2.38;0.55;;;;;19.50;101588.00;;;;5048629;28;20200;-77
2021/10/15 09:38:10;;;;;;;3.92;0.60;;;;;19.50;101591.00;;;;5033931;28;20208;-78
2021/10/15 09:40:39;;;;;;;1.70;0.60;;;;;19.60;101591.00;;;;5044318;28;20191;-77
2021/10/15 09:43:09;;;;;;;1.10;0.60;;;;;19.70;101594.00;;;;5045384;28;20260;-78
2021/10/15 09:45:38;;;;;;;2.22;0.60;;;;;19.80;101599.00;;;;5042344;28;20204;-78
2021/10/15 09:48:21;;;;;;;6.65;1.15;;;;;19.80;101600.00;;;;5044020;28;20200;-78
2021/10/15 09:51:09;;;;;;;2.40;0.38;;;;;20.00;101605.00;;;;5047710;28;20200;-78
2021/10/15 09:53:37;;;;;;;3.75;0.40;;;;;20.10;101606.00;;;;5047726;28;20249;-78
2021/10/15 09:56:04;;;;;;;1.83;0.50;;;;;20.20;101619.00;;;;5033747;28;20220;-78
2021/10/15 09:58:31;;;;;;;1.25;0.38;;;;;20.30;101621.00;;;;5048555;28;20556;-78
2021/10/15 10:00:59;;;;;;;0.40;0.25;;;;;20.40;101619.00;;;;5048814;28;20199;-77
2021/10/15 10:03:27;;;;;;;2.47;0.65;;;;;20.40;101624.00;;;;5049731;28;20207;-78
2021/10/15 10:05:55;;;;;;;4.50;1.15;;;;;20.50;101627.00;;;;5036712;28;20211;-78
2021/10/15 10:08:22;;;;;;;1.98;0.35;;;;;20.60;101633.00;;;;5042953;28;20196;-78
2021/10/15 10:10:49;;;;;;;1.98;0.50;;;;;20.70;101626.00;;;;5032652;28;20681;-79
2021/10/15 10:13:17;;;;;;;3.47;0.43;;;;;20.70;101635.00;;;;5029054;28;20203;-79
2021/10/15 10:15:46;;;;;;;2.50;0.38;;;;;20.70;101633.00;;;;5029164;28;20204;-79
2021/10/15 10:18:25;;;;;;;2.58;0.85;;;;;20.80;101634.00;;;;5035380;28;20577;-79
2021/10/15 10:20:58;;;;;;;2.38;0.85;;;;;20.80;101643.00;;;;5047839;28;20207;-79
2021/10/15 10:23:29;;;;;;;1.38;0.38;;;;;20.90;101641.00;;;;5029970;28;20208;-78
2021/10/15 10:26:01;;;;;;;3.13;0.40;;;;;20.90;101637.00;;;;5034855;28;20199;-78
2021/10/15 10:28:29;;;;;;;2.05;0.60;;;;;21.00;101645.00;;;;5048472;28;20199;-79
2021/10/15 10:30:59;;;;;;;3.65;0.45;;;;;21.00;101646.00;;;;5048174;28;20200;-78
2021/10/15 10:33:27;;;;;;;3.22;0.50;;;;;21.10;101648.00;;;;5048310;28;20198;-79
2021/10/15 10:36:10;;;;;;;2.60;0.43;;;;;21.10;101648.00;;;;5056858;28;20195;-78
2021/10/15 10:38:37;;;;;;;1.73;0.28;;;;;21.20;101667.00;;;;5043454;28;20243;-78
2021/10/15 10:41:19;;;;;;;3.17;0.50;;;;;21.20;101663.00;;;;5028527;28;20204;-81
2021/10/15 10:44:19;;;;;;;3.13;0.47;;;;;21.20;101665.00;;;;5028249;28;20204;-80
2021/10/15 10:47:09;;;;;;;3.17;0.60;;;;;21.30;101664.00;;;;4985794;28;20775;-81
2021/10/15 10:49:36;;;;;;;1.13;0.40;;;;;21.40;101673.00;;;;5019986;28;20227;-80
2021/10/15 10:52:20;;;;;;;2.45;0.35;;;;;21.30;101665.00;;;;5050587;28;20206;-81
2021/10/15 10:54:49;;;;;;;2.83;0.75;;;;;21.50;101671.00;;;;5040693;28;20243;-81
2021/10/15 10:57:22;;;;;;;6.22;1.38;;;;;21.60;101673.00;;;;5032223;28;20214;-80
2021/10/15 10:59:52;;;;;;;1.08;0.20;;;;;21.60;101674.00;;;;5031193;28;20210;-80
2021/10/15 11:02:20;;;;;;;2.33;0.47;;;;;21.70;101674.00;;;;5032287;28;20266;-81
2021/10/15 11:04:56;;;;;;;3.78;0.90;;;;;21.80;101681.00;;;;5031937;28;20196;-79
2021/10/15 11:07:27;;;;;;;1.75;0.43;;;;;21.90;101687.00;;;;5031765;28;20223;-78
2021/10/15 11:09:57;;;;;;;1.92;0.82;;;;;22.00;101684.00;;;;5031838;28;20200;-78
2021/10/15 11:12:59;;;;;;;2.75;0.68;;;;;21.90;101690.00;;;;5034657;28;20215;-78
2021/10/15 11:15:31;;;;;;;3.42;0.77;;;;;22.00;101693.00;;;;5061790;28;20190;-80
2021/10/15 11:17:58;;;;;;;3.78;0.52;;;;;22.00;101697.00;;;;5052001;28;20210;-80
2021/10/15 11:20:28;;;;;;;6.97;0.45;;;;;22.00;101696.00;;;;5051512;28;20192;-80
2021/10/15 11:22:59;;;;;;;1.17;0.40;;;;;21.90;101701.00;;;;5051186;28;20203;-81
2021/10/15 11:25:29;;;;;;;3.67;0.35;;;;;21.80;101705.00;;;;5051515;28;20210;-78
2021/10/15 11:27:58;;;;;;;1.52;0.20;;;;;21.70;101702.00;;;;5050380;28;20223;-79
2021/10/15 11:30:28;;;;;;;1.17;0.30;;;;;21.70;101709.00;;;;5040565;28;20535;-79
2021/10/15 11:32:56;;;;;;;2.97;0.52;;;;;21.60;101711.00;;;;5030845;28;20574;-80
2021/10/15 11:35:25;;;;;;;1.23;0.40;;;;;21.50;101713.00;;;;5031748;28;20203;-81
2021/10/15 11:37:57;;;;;;;4.15;0.50;;;;;21.40;101709.00;;;;5043973;28;20672;-79
2021/10/15 11:40:28;;;;;;;1.88;0.47;;;;;21.40;101707.00;;;;5051351;28;20804;-80
2021/10/15 11:43:20;;;;;;;1.95;0.38;;;;;21.20;101714.00;;;;5041101;28;20223;-80
2021/10/15 11:45:49;;;;;;;2.78;0.75;;;;;21.30;101717.00;;;;5049696;28;20199;-80
2021/10/15 11:48:18;;;;;;;2.88;0.40;;;;;21.30;101724.00;;;;5050063;28;20223;-80
2021/10/15 11:50:49;;;;;;;2.63;0.30;;;;;21.30;101719.00;;;;5054093;28;20191;-80
2021/10/15 11:53:20;;;;;;;3.53;0.50;;;;;21.30;101722.00;;;;5051276;28;20286;-79
2021/10/15 11:55:49;;;;;;;3.25;0.77;;;;;21.40;101729.00;;;;5044411;28;20219;-80
2021/10/15 11:58:20;;;;;;;4.95;0.43;;;;;21.40;101738.00;;;;5051520;28;20214;-76
2021/10/15 12:01:05;;;;;;;2.35;0.80;;;;;21.30;101741.00;;;;5050552;28;20195;-77
2021/10/15 12:03:35;;;;;;;8.05;0.60;;;;;21.40;101739.00;;;;5046747;28;20207;-77
2021/10/15 12:06:23;;;;;;;2.22;0.60;;;;;21.20;101747.00;;;;5030972;28;20201;-77
2021/10/15 12:08:54;;;;;;;1.67;0.30;;;;;21.30;101750.00;;;;5029295;28;20433;-77
2021/10/15 12:11:26;;;;;;;5.82;0.70;;;;;21.20;101747.00;;;;5030949;28;20204;-77
2021/10/15 12:13:55;;;;;;;3.67;0.68;;;;;21.10;101755.00;;;;5033398;28;20565;-78
2021/10/15 12:16:28;;;;;;;3.97;0.80;;;;;21.00;101747.00;;;;5045493;28;20212;-76
2021/10/15 12:19:20;;;;;;;2.47;0.63;;;;;20.90;101749.00;;;;5036248;28;20700;-77
2021/10/15 12:21:50;;;;;;;3.58;0.65;;;;;21.00;101752.00;;;;5033200;28;20240;-78
2021/10/15 12:24:28;;;;;;;3.33;0.70;;;;;20.80;101752.00;;;;5040647;28;20207;-77
2021/10/15 12:27:13;;;;;;;6.35;1.00;;;;;20.80;101758.00;;;;5055232;28;20234;-77
2021/10/15 12:29:43;;;;;;;4.78;0.80;;;;;20.80;101756.00;;;;5029515;28;20203;-77
2021/10/15 12:32:18;;;;;;;4.60;1.02;;;;;20.80;101765.00;;;;5030274;28;20192;-76
2021/10/15 12:35:10;;;;;;;2.20;0.85;;;;;20.70;101759.00;;;;5029948;28;20211;-77